Time;durP1;ratioP1;P1;durP2;ratioP2;P2;SDS_P1;SDS_P2;PMS_P1;PMS_P2;Temp;Humidity;BMP_temperature;BMP_pressure;BME280_temperature;BME280_humidity;BME280_pressure;Samples;Min_cycle;Max_cycle;Signal;HPM_P1;HPM_P2
2022/12/16 00:01:09;;;;;;;9.23;8.43;;;;;;;;;;5099853;28;20199;-68
2022/12/16 00:03:37;;;;;;;9.75;9.02;;;;;;;;;;5099960;28;20696;-68
2022/12/16 00:06:05;;;;;;;9.45;8.65;;;;;;;;;;5099837;28;20212;-68
2022/12/16 00:08:34;;;;;;;8.60;8.00;;;;;;;;;;5099640;28;20235;-69
2022/12/16 00:11:02;;;;;;;9.40;8.60;;;;;;;;;;5099553;28;20274;-68
2022/12/16 00:13:33;;;;;;;9.20;8.50;;;;;;;;;;5100022;28;20306;-68
2022/12/16 00:16:01;;;;;;;9.35;8.55;;;;;;;;;;5099985;28;20232;-69
2022/12/16 00:18:28;;;;;;;8.20;7.60;;;;;;;;;;5099879;28;20269;-69
2022/12/16 00:20:56;;;;;;;8.88;8.18;;;;;;;;;;5099652;28;20576;-71
2022/12/16 00:23:24;;;;;;;8.68;7.97;;;;;;;;;;5099512;28;20657;-68
2022/12/16 00:25:52;;;;;;;8.57;7.88;;;;;;;;;;5098842;28;20204;-68
2022/12/16 00:28:21;;;;;;;9.00;8.30;;;;;;;;;;5098831;28;20203;-69
2022/12/16 00:30:51;;;;;;;8.00;7.40;;;;;;;;;;5098951;28;20200;-69
2022/12/16 00:33:19;;;;;;;8.43;7.75;;;;;;;;;;5099398;28;20214;-69
2022/12/16 00:35:47;;;;;;;8.77;8.10;;;;;;;;;;5099164;28;20207;-69
2022/12/16 00:38:15;;;;;;;8.05;7.45;;;;;;;;;;5099043;28;20306;-69
2022/12/16 00:40:43;;;;;;;8.23;7.60;;;;;;;;;;5099730;28;20207;-69
2022/12/16 00:43:11;;;;;;;8.30;7.60;;;;;;;;;;5099193;28;20274;-69
2022/12/16 00:45:39;;;;;;;8.73;8.02;;;;;;;;;;5099427;28;20207;-69
2022/12/16 00:48:09;;;;;;;8.23;7.53;;;;;;;;;;5099395;28;20242;-69
2022/12/16 00:50:37;;;;;;;8.32;7.65;;;;;;;;;;5099041;28;20203;-69
2022/12/16 00:53:05;;;;;;;8.75;8.05;;;;;;;;;;5099275;28;20469;-69
2022/12/16 00:55:33;;;;;;;8.27;7.60;;;;;;;;;;5099091;28;20195;-69
2022/12/16 00:58:01;;;;;;;7.85;7.25;;;;;;;;;;5098938;28;20203;-68
2022/12/16 01:00:29;;;;;;;8.15;7.50;;;;;;;;;;5099043;28;20210;-69
2022/12/16 01:02:56;;;;;;;8.18;7.57;;;;;;;;;;5098543;28;20200;-69
2022/12/16 01:05:26;;;;;;;8.18;7.50;;;;;;;;;;5099058;28;20510;-69
2022/12/16 01:07:54;;;;;;;8.40;7.72;;;;;;;;;;5098904;28;20212;-69
2022/12/16 01:10:22;;;;;;;8.13;7.53;;;;;;;;;;5098701;28;20785;-69
2022/12/16 01:12:50;;;;;;;7.78;7.18;;;;;;;;;;5098733;28;20258;-69
2022/12/16 01:15:18;;;;;;;7.97;7.35;;;;;;;;;;5098411;28;20330;-68
2022/12/16 01:17:46;;;;;;;7.45;6.85;;;;;;;;;;5098633;28;20239;-68
2022/12/16 01:20:14;;;;;;;8.68;7.97;;;;;;;;;;5098883;28;20261;-69
2022/12/16 01:22:44;;;;;;;8.80;8.10;;;;;;;;;;5098313;28;20797;-69
2022/12/16 01:25:12;;;;;;;8.25;7.65;;;;;;;;;;5098314;28;20204;-69
2022/12/16 01:27:40;;;;;;;7.90;7.20;;;;;;;;;;5098799;28;20204;-69
2022/12/16 01:30:09;;;;;;;8.15;7.55;;;;;;;;;;5098357;28;20208;-69
2022/12/16 01:32:37;;;;;;;8.82;8.13;;;;;;;;;;5098641;28;20641;-69
2022/12/16 01:35:05;;;;;;;8.00;7.40;;;;;;;;;;5098471;28;20205;-69
2022/12/16 01:37:33;;;;;;;7.63;7.03;;;;;;;;;;5098644;28;20204;-69
2022/12/16 01:40:03;;;;;;;7.80;7.20;;;;;;;;;;5098244;28;20239;-69
2022/12/16 01:42:32;;;;;;;8.02;7.32;;;;;;;;;;5098301;28;20200;-69
2022/12/16 01:45:14;;;;;;;8.05;7.35;;;;;;;;;;5098557;28;20562;-68
2022/12/16 01:47:42;;;;;;;8.52;7.78;;;;;;;;;;5097743;28;20203;-69
2022/12/16 01:50:12;;;;;;;7.97;7.35;;;;;;;;;;5097806;28;20200;-69
2022/12/16 01:52:43;;;;;;;7.82;7.22;;;;;;;;;;5097598;28;20554;-69
2022/12/16 01:55:14;;;;;;;8.10;7.40;;;;;;;;;;5098444;28;20210;-69
2022/12/16 01:57:44;;;;;;;7.82;7.20;;;;;;;;;;5097608;28;20306;-69
2022/12/16 02:00:12;;;;;;;7.97;7.38;;;;;;;;;;5098038;28;20208;-69
2022/12/16 02:02:40;;;;;;;8.07;7.30;;;;;;;;;;5097842;28;20196;-68
2022/12/16 02:05:21;;;;;;;8.32;7.63;;;;;;;;;;5098079;28;20215;-69
2022/12/16 02:07:53;;;;;;;8.23;7.53;;;;;;;;;;5097793;28;20222;-68
2022/12/16 02:10:26;;;;;;;7.68;7.07;;;;;;;;;;5097863;28;20211;-68
2022/12/16 02:12:57;;;;;;;7.68;7.05;;;;;;;;;;5097492;28;20223;-68
2022/12/16 02:15:32;;;;;;;7.55;6.93;;;;;;;;;;5097641;28;20227;-69
2022/12/16 02:18:03;;;;;;;8.73;8.00;;;;;;;;;;5097295;28;20250;-69
2022/12/16 02:20:55;;;;;;;8.57;7.88;;;;;;;;;;5097836;28;20204;-69
2022/12/16 02:23:34;;;;;;;8.02;7.43;;;;;;;;;;5073214;28;20203;-68
2022/12/16 02:26:18;;;;;;;8.55;7.85;;;;;;;;;;5097793;28;20265;-69
2022/12/16 02:28:54;;;;;;;8.32;7.63;;;;;;;;;;5097611;28;20298;-69
2022/12/16 02:31:25;;;;;;;7.93;7.32;;;;;;;;;;5097371;28;20543;-68
2022/12/16 02:33:56;;;;;;;8.25;7.55;;;;;;;;;;5097525;28;20269;-68
2022/12/16 02:36:33;;;;;;;8.35;7.65;;;;;;;;;;5097570;28;20207;-69
2022/12/16 02:39:02;;;;;;;7.93;7.28;;;;;;;;;;5097423;28;20226;-69
2022/12/16 02:41:34;;;;;;;8.20;7.60;;;;;;;;;;5097252;28;20588;-69
2022/12/16 02:44:04;;;;;;;8.45;7.75;;;;;;;;;;5097664;28;20235;-69
2022/12/16 02:46:34;;;;;;;8.38;7.68;;;;;;;;;;5097185;28;20266;-69
2022/12/16 02:49:06;;;;;;;8.35;7.65;;;;;;;;;;5098148;28;20258;-69
2022/12/16 02:51:34;;;;;;;8.60;7.90;;;;;;;;;;5101452;28;20531;-69
2022/12/16 02:54:02;;;;;;;7.95;7.25;;;;;;;;;;5101671;28;20258;-70
2022/12/16 02:56:37;;;;;;;8.35;7.65;;;;;;;;;;5101865;28;20211;-69
2022/12/16 02:59:09;;;;;;;8.38;7.68;;;;;;;;;;5101447;28;20214;-69
2022/12/16 03:01:42;;;;;;;8.52;7.72;;;;;;;;;;5101492;28;20195;-69
2022/12/16 03:04:14;;;;;;;8.00;7.40;;;;;;;;;;5101486;28;20496;-69
2022/12/16 03:06:43;;;;;;;8.45;7.75;;;;;;;;;;5101472;28;20264;-69
2022/12/16 03:09:12;;;;;;;8.07;7.40;;;;;;;;;;5101119;28;20222;-69
2022/12/16 03:11:42;;;;;;;8.65;7.95;;;;;;;;;;5101281;28;20204;-68
2022/12/16 03:14:10;;;;;;;8.30;7.60;;;;;;;;;;5101320;28;20207;-68
2022/12/16 03:16:40;;;;;;;8.02;7.35;;;;;;;;;;5100786;28;20239;-69
2022/12/16 03:19:08;;;;;;;8.43;7.65;;;;;;;;;;5100814;28;20210;-69
2022/12/16 03:21:39;;;;;;;7.93;7.30;;;;;;;;;;5100977;28;20215;-69
2022/12/16 03:24:09;;;;;;;7.85;7.25;;;;;;;;;;5100712;28;20269;-68
2022/12/16 03:26:40;;;;;;;8.43;7.72;;;;;;;;;;5100643;28;20537;-68
2022/12/16 03:29:09;;;;;;;8.35;7.65;;;;;;;;;;5100809;28;20211;-69
2022/12/16 03:31:39;;;;;;;7.53;6.93;;;;;;;;;;5100850;28;20231;-68
2022/12/16 03:34:12;;;;;;;8.02;7.43;;;;;;;;;;5100735;28;20534;-69
2022/12/16 03:36:40;;;;;;;8.30;7.60;;;;;;;;;;5100389;28;20208;-69
2022/12/16 03:39:09;;;;;;;7.85;7.15;;;;;;;;;;5100394;28;20203;-69
2022/12/16 03:41:37;;;;;;;8.00;7.35;;;;;;;;;;5100370;28;20199;-69
2022/12/16 03:44:05;;;;;;;7.45;6.85;;;;;;;;;;5100395;28;20448;-68
2022/12/16 03:46:34;;;;;;;7.78;7.10;;;;;;;;;;5100643;28;20222;-69
2022/12/16 03:49:02;;;;;;;7.45;6.85;;;;;;;;;;5100158;28;20210;-69
2022/12/16 03:51:31;;;;;;;7.30;6.70;;;;;;;;;;5100276;28;20217;-69
2022/12/16 03:53:59;;;;;;;7.97;7.28;;;;;;;;;;5100174;28;20223;-69
2022/12/16 03:56:27;;;;;;;7.53;6.93;;;;;;;;;;5100696;28;20272;-69
2022/12/16 03:58:54;;;;;;;7.38;6.78;;;;;;;;;;5100348;28;20235;-68
2022/12/16 04:01:22;;;;;;;7.32;6.72;;;;;;;;;;5099977;28;20324;-69
2022/12/16 04:03:50;;;;;;;7.65;7.05;;;;;;;;;;5099869;28;20207;-69
2022/12/16 04:06:19;;;;;;;7.38;6.78;;;;;;;;;;5099774;28;20741;-69
2022/12/16 04:08:48;;;;;;;7.43;6.82;;;;;;;;;;5099625;28;20565;-69
2022/12/16 04:25:08;;;;;;;7.32;6.72;;;;;;;;;;5099143;28;20191;-69
2022/12/16 04:27:36;;;;;;;6.93;6.40;;;;;;;;;;5099648;28;20204;-69
2022/12/16 04:30:19;;;;;;;7.40;6.80;;;;;;;;;;5099214;28;20215;-69
